Orbital elements of COSMOS 1275 DEB
| Launched | 3 June 1981 |
| Flight ended | – |
| Launch site | Plesetsk Missile and Space Complex, Russia |
| Owner | Commonwealth of Independent States (former USSR) |
| NORAD ID | 12733 |
| Date fetched |
Epoch osculation |
Inc. [°] |
Ecc. | RA asc node [hr] |
Arg Peri. [°] |
Mean anom [°] |
Mean motion [rev/day] |
Abs. mag |
| Date fetched |
Epoch osculation |
Inc. [°] |
Ecc. | RA asc node [hr] |
Arg Peri. [°] |
Mean anom [°] |
Mean motion [rev/day] |
Abs. mag |
| 2026 May 05 17:57 | 2026 May 05 11:43:08 | 82.8529 | 0.00183 | 20.0954 | 38.8773 | 321.3728 | 14.39321 | – |
| 2026 May 04 17:57 | 2026 Apr 30 14:55:32 | 82.8524 | 0.00187 | 20.3662 | 52.9714 | 321.3728 | 14.39321 | – |
| 2026 May 03 17:57 | 2026 Apr 30 14:55:32 | 82.8524 | 0.00187 | 20.3662 | 52.9714 | 321.3728 | 14.39321 | – |
| 2026 May 02 17:57 | 2026 Apr 30 14:55:32 | 82.8524 | 0.00187 | 20.3662 | 52.9714 | 321.3728 | 14.39321 | – |
| 2026 May 01 17:56 | 2026 Apr 30 14:55:32 | 82.8524 | 0.00187 | 20.3662 | 52.9714 | 321.3728 | 14.39321 | – |
| 2026 Apr 30 17:56 | 2026 Apr 30 14:55:32 | 82.8524 | 0.00187 | 20.3662 | 52.9714 | 321.3728 | 14.39321 | – |
| 2026 Apr 29 17:57 | 2026 Apr 24 12:05:41 | 82.8539 | 0.00191 | 20.7066 | 69.8347 | 321.3728 | 14.39321 | – |
| 2026 Apr 28 17:56 | 2026 Apr 24 12:05:41 | 82.8539 | 0.00191 | 20.7066 | 69.8347 | 321.3728 | 14.39321 | – |
| 2026 Apr 27 17:58 | 2026 Apr 24 12:05:41 | 82.8539 | 0.00191 | 20.7066 | 69.8347 | 321.3728 | 14.39321 | – |
| 2026 Apr 26 17:58 | 2026 Apr 24 12:05:41 | 82.8539 | 0.00191 | 20.7066 | 69.8347 | 321.3728 | 14.39321 | – |
| 2026 Apr 25 17:58 | 2026 Apr 24 12:05:41 | 82.8539 | 0.00191 | 20.7066 | 69.8347 | 321.3728 | 14.39321 | – |
| 2026 Apr 24 17:59 | 2026 Apr 24 12:05:41 | 82.8539 | 0.00191 | 20.7066 | 69.8347 | 321.3728 | 14.39321 | – |
| 2026 Apr 23 17:57 | 2026 Apr 19 06:57:03 | 82.8532 | 0.00191 | 20.9966 | 84.0211 | 321.3728 | 14.39321 | – |
| 2026 Apr 22 17:57 | 2026 Apr 19 06:57:03 | 82.8532 | 0.00191 | 20.9966 | 84.0211 | 321.3728 | 14.39321 | – |
| 2026 Apr 21 17:57 | 2026 Apr 19 06:57:03 | 82.8532 | 0.00191 | 20.9966 | 84.0211 | 321.3728 | 14.39321 | – |
| 2026 Apr 20 17:57 | 2026 Apr 19 06:57:03 | 82.8532 | 0.00191 | 20.9966 | 84.0211 | 321.3728 | 14.39321 | – |
| 2026 Apr 19 17:58 | 2026 Apr 19 06:57:03 | 82.8532 | 0.00191 | 20.9966 | 84.0211 | 321.3728 | 14.39321 | – |
| 2026 Apr 18 17:56 | 2026 Apr 13 00:46:29 | 82.8552 | 0.00188 | 21.3447 | 101.3257 | 321.3728 | 14.39321 | – |
| 2026 Apr 16 17:57 | 2026 Apr 13 00:46:29 | 82.8552 | 0.00188 | 21.3447 | 101.3257 | 321.3728 | 14.39321 | – |
| 2026 Apr 14 17:57 | 2026 Apr 13 00:46:29 | 82.8552 | 0.00188 | 21.3447 | 101.3257 | 321.3728 | 14.39321 | – |
| 2026 Apr 13 17:57 | 2026 Apr 13 00:46:29 | 82.8552 | 0.00188 | 21.3447 | 101.3257 | 321.3728 | 14.39321 | – |
| 2026 Apr 12 17:57 | 2026 Apr 08 00:37:52 | 82.8559 | 0.00185 | 21.6230 | 115.4747 | 321.3728 | 14.39321 | – |
| 2026 Apr 11 17:57 | 2026 Apr 08 00:37:52 | 82.8559 | 0.00185 | 21.6230 | 115.4747 | 321.3728 | 14.39321 | – |
| 2026 Apr 10 17:58 | 2026 Apr 08 00:37:52 | 82.8559 | 0.00185 | 21.6230 | 115.4747 | 321.3728 | 14.39321 | – |
| 2026 Apr 09 18:01 | 2026 Apr 08 00:37:52 | 82.8559 | 0.00185 | 21.6230 | 115.4747 | 321.3728 | 14.39321 | – |
| 2026 Apr 08 17:57 | 2026 Apr 08 00:37:52 | 82.8559 | 0.00185 | 21.6230 | 115.4747 | 321.3728 | 14.39321 | – |